sensor_id;sensor_type;location;lat;lon;timestamp;pressure;altitude;pressure_sealevel;temperature;humidity
64544;BME280;50936;51.660;5.616;2023-04-22T00:01:08;100468.66;;;7.60;100.00
64544;BME280;50936;51.660;5.616;2023-04-22T00:03:35;100468.84;;;7.57;100.00
64544;BME280;50936;51.660;5.616;2023-04-22T00:06:02;100463.53;;;7.56;100.00
64544;BME280;50936;51.660;5.616;2023-04-22T00:08:29;100463.63;;;7.54;100.00
64544;BME280;50936;51.660;5.616;2023-04-22T00:10:56;100462.97;;;7.50;100.00
64544;BME280;50936;51.660;5.616;2023-04-22T00:13:23;100465.75;;;7.49;100.00
64544;BME280;50936;51.660;5.616;2023-04-22T00:15:50;100459.59;;;7.47;100.00
64544;BME280;50936;51.660;5.616;2023-04-22T00:18:17;100455.38;;;7.43;100.00
64544;BME280;50936;51.660;5.616;2023-04-22T00:20:44;100460.75;;;7.43;100.00
64544;BME280;50936;51.660;5.616;2023-04-22T00:23:12;100450.97;;;7.42;100.00
64544;BME280;50936;51.660;5.616;2023-04-22T00:25:39;100455.56;;;7.40;100.00
64544;BME280;50936;51.660;5.616;2023-04-22T00:28:06;100453.00;;;7.38;100.00
64544;BME280;50936;51.660;5.616;2023-04-22T00:30:34;100453.88;;;7.39;100.00
64544;BME280;50936;51.660;5.616;2023-04-22T00:33:01;100453.88;;;7.39;100.00
64544;BME280;50936;51.660;5.616;2023-04-22T00:35:28;100459.25;;;7.39;100.00
64544;BME280;50936;51.660;5.616;2023-04-22T00:37:56;100452.88;;;7.40;100.00
64544;BME280;50936;51.660;5.616;2023-04-22T00:40:22;100444.72;;;7.41;100.00
64544;BME280;50936;51.660;5.616;2023-04-22T00:42:49;100446.38;;;7.44;100.00
64544;BME280;50936;51.660;5.616;2023-04-22T00:45:18;100453.47;;;7.45;100.00
64544;BME280;50936;51.660;5.616;2023-04-22T00:47:47;100448.94;;;7.45;100.00
64544;BME280;50936;51.660;5.616;2023-04-22T00:50:14;100451.53;;;7.47;100.00
64544;BME280;50936;51.660;5.616;2023-04-22T00:52:41;100453.28;;;7.48;100.00
64544;BME280;50936;51.660;5.616;2023-04-22T00:55:09;100449.63;;;7.49;100.00
64544;BME280;50936;51.660;5.616;2023-04-22T00:57:38;100453.28;;;7.48;100.00
64544;BME280;50936;51.660;5.616;2023-04-22T01:00:06;100455.00;;;7.49;100.00
64544;BME280;50936;51.660;5.616;2023-04-22T01:02:36;100451.53;;;7.47;100.00
64544;BME280;50936;51.660;5.616;2023-04-22T01:05:06;100454.13;;;7.48;100.00
64544;BME280;50936;51.660;5.616;2023-04-22T01:07:36;100448.75;;;7.48;100.00
64544;BME280;50936;51.660;5.616;2023-04-22T01:10:04;100442.53;;;7.48;100.00
64544;BME280;50936;51.660;5.616;2023-04-22T01:12:31;100449.63;;;7.49;100.00
64544;BME280;50936;51.660;5.616;2023-04-22T01:14:58;100446.00;;;7.50;100.00
64544;BME280;50936;51.660;5.616;2023-04-22T01:17:28;100451.38;;;7.50;100.00
64544;BME280;50936;51.660;5.616;2023-04-22T01:19:58;100449.44;;;7.52;100.00
64544;BME280;50936;51.660;5.616;2023-04-22T01:22:25;100445.81;;;7.53;100.00
64544;BME280;50936;51.660;5.616;2023-04-22T01:24:59;100436.75;;;7.54;100.00
64544;BME280;50936;51.660;5.616;2023-04-22T01:27:26;100436.56;;;7.57;100.00
64544;BME280;50936;51.660;5.616;2023-04-22T01:29:53;100438.28;;;7.58;100.00
64544;BME280;50936;51.660;5.616;2023-04-22T01:32:21;100436.41;;;7.60;100.00
64544;BME280;50936;51.660;5.616;2023-04-22T01:34:48;100432.53;;;7.64;100.00
64544;BME280;50936;51.660;5.616;2023-04-22T01:37:17;100433.22;;;7.68;100.00
64544;BME280;50936;51.660;5.616;2023-04-22T01:39:45;100438.38;;;7.71;100.00
64544;BME280;50936;51.660;5.616;2023-04-22T01:42:13;100434.53;;;7.75;100.00
64544;BME280;50936;51.660;5.616;2023-04-22T01:44:41;100421.00;;;7.77;100.00
64544;BME280;50936;51.660;5.616;2023-04-22T01:47:08;100431.53;;;7.80;100.00
64544;BME280;50936;51.660;5.616;2023-04-22T01:49:35;100434.03;;;7.83;100.00
64544;BME280;50936;51.660;5.616;2023-04-22T01:52:02;100431.34;;;7.83;100.00
64544;BME280;50936;51.660;5.616;2023-04-22T01:54:29;100434.72;;;7.86;100.00
64544;BME280;50936;51.660;5.616;2023-04-22T01:56:56;100431.94;;;7.88;100.00
64544;BME280;50936;51.660;5.616;2023-04-22T01:59:24;100424.53;;;7.92;100.00
64544;BME280;50936;51.660;5.616;2023-04-22T02:01:51;100433.34;;;7.94;100.00
64544;BME280;50936;51.660;5.616;2023-04-22T02:04:19;100426.91;;;7.96;100.00
64544;BME280;50936;51.660;5.616;2023-04-22T02:06:46;100430.34;;;7.98;100.00
64544;BME280;50936;51.660;5.616;2023-04-22T02:09:12;100428.41;;;8.00;100.00
64544;BME280;50936;51.660;5.616;2023-04-22T02:11:39;100422.09;;;8.01;100.00
64544;BME280;50936;51.660;5.616;2023-04-22T02:14:06;100425.53;;;8.03;100.00
64544;BME280;50936;51.660;5.616;2023-04-22T02:16:34;100424.59;;;8.04;100.00
64544;BME280;50936;51.660;5.616;2023-04-22T02:19:01;100416.53;;;8.04;100.00
64544;BME280;50936;51.660;5.616;2023-04-22T02:21:28;100417.28;;;8.06;100.00
64544;BME280;50936;51.660;5.616;2023-04-22T02:23:58;100419.00;;;8.07;100.00
64544;BME280;50936;51.660;5.616;2023-04-22T02:26:27;100411.69;;;8.09;100.00
64544;BME280;50936;51.660;5.616;2023-04-22T02:28:54;100415.34;;;8.08;100.00
64544;BME280;50936;51.660;5.616;2023-04-22T02:31:20;100409.00;;;8.09;100.00
64544;BME280;50936;51.660;5.616;2023-04-22T02:33:48;100416.19;;;8.09;100.00
64544;BME280;50936;51.660;5.616;2023-04-22T02:36:15;100418.78;;;8.10;100.00
64544;BME280;50936;51.660;5.616;2023-04-22T02:38:41;100415.34;;;8.08;100.00
64544;BME280;50936;51.660;5.616;2023-04-22T02:41:08;100410.81;;;8.09;100.00
64544;BME280;50936;51.660;5.616;2023-04-22T02:43:36;100409.97;;;8.08;100.00
64544;BME280;50936;51.660;5.616;2023-04-22T02:46:03;100405.44;;;8.09;100.00
64544;BME280;50936;51.660;5.616;2023-04-22T02:48:30;100399.22;;;8.08;100.00
64544;BME280;50936;51.660;5.616;2023-04-22T02:50:57;100400.06;;;8.09;100.00
64544;BME280;50936;51.660;5.616;2023-04-22T02:53:24;100398.13;;;8.11;100.00
64544;BME280;50936;51.660;5.616;2023-04-22T02:55:51;100400.72;;;8.13;100.00
64544;BME280;50936;51.660;5.616;2023-04-22T02:58:18;100402.47;;;8.14;100.00
64544;BME280;50936;51.660;5.616;2023-04-22T03:00:45;100397.09;;;8.14;100.00
64544;BME280;50936;51.660;5.616;2023-04-22T03:03:11;100395.34;;;8.13;100.00
64544;BME280;50936;51.660;5.616;2023-04-22T03:05:39;100394.41;;;8.14;100.00
64544;BME280;50936;51.660;5.616;2023-04-22T03:08:06;100397.09;;;8.14;100.00
64544;BME280;50936;51.660;5.616;2023-04-22T03:10:33;100388.03;;;8.15;100.00
64544;BME280;50936;51.660;5.616;2023-04-22T03:13:00;100385.34;;;8.15;100.00
64544;BME280;50936;51.660;5.616;2023-04-22T03:15:27;100396.84;;;8.17;100.00
64544;BME280;50936;51.660;5.616;2023-04-22T03:17:53;100390.72;;;8.15;100.00
64544;BME280;50936;51.660;5.616;2023-04-22T03:20:22;100397.84;;;8.16;100.00
64544;BME280;50936;51.660;5.616;2023-04-22T03:22:49;100388.03;;;8.15;100.00
64544;BME280;50936;51.660;5.616;2023-04-22T03:25:16;100393.41;;;8.15;100.00
64544;BME280;50936;51.660;5.616;2023-04-22T03:27:52;100393.41;;;8.15;100.00
64544;BME280;50936;51.660;5.616;2023-04-22T03:30:18;100384.38;;;8.16;100.00
64544;BME280;50936;51.660;5.616;2023-04-22T03:32:46;100380.72;;;8.17;100.00
64544;BME280;50936;51.660;5.616;2023-04-22T03:35:37;100378.81;;;8.19;100.00
64544;BME280;50936;51.660;5.616;2023-04-22T03:38:04;100385.91;;;8.20;100.00
64544;BME280;50936;51.660;5.616;2023-04-22T03:40:34;100371.69;;;8.18;100.00
64544;BME280;50936;51.660;5.616;2023-04-22T03:43:07;100373.44;;;8.19;100.00
64544;BME280;50936;51.660;5.616;2023-04-22T03:45:34;100371.69;;;8.18;100.00
64544;BME280;50936;51.660;5.616;2023-04-22T03:48:18;100371.69;;;8.18;100.00
64544;BME280;50936;51.660;5.616;2023-04-22T03:50:49;100363.53;;;8.19;100.00
64544;BME280;50936;51.660;5.616;2023-04-22T03:53:16;100359.97;;;8.19;100.00
64544;BME280;50936;51.660;5.616;2023-04-22T03:55:43;100360.94;;;8.18;100.00
64544;BME280;50936;51.660;5.616;2023-04-22T03:58:13;100359.19;;;8.17;100.00
64544;BME280;50936;51.660;5.616;2023-04-22T04:00:40;100355.66;;;8.16;100.00
64544;BME280;50936;51.660;5.616;2023-04-22T04:03:13;100352.09;;;8.16;100.00
64544;BME280;50936;51.660;5.616;2023-04-22T04:05:42;100345.88;;;8.15;100.00
64544;BME280;50936;51.660;5.616;2023-04-22T04:08:09;100348.66;;;8.14;100.00
64544;BME280;50936;51.660;5.616;2023-04-22T04:10:36;100346.94;;;8.13;100.00
64544;BME280;50936;51.660;5.616;2023-04-22T04:13:04;100351.34;;;8.14;100.00
64544;BME280;50936;51.660;5.616;2023-04-22T04:15:39;100358.34;;;8.16;100.00
64544;BME280;50936;51.660;5.616;2023-04-22T04:18:07;100353.81;;;8.17;100.00
64544;BME280;50936;51.660;5.616;2023-04-22T04:20:35;100341.25;;;8.17;100.00
64544;BME280;50936;51.660;5.616;2023-04-22T04:23:02;100333.19;;;8.17;100.00
64544;BME280;50936;51.660;5.616;2023-04-22T04:25:29;100341.16;;;8.19;100.00
64544;BME280;50936;51.660;5.616;2023-04-22T04:28:09;100354.47;;;8.20;100.00
64544;BME280;50936;51.660;5.616;2023-04-22T04:30:37;100344.59;;;8.21;100.00
64544;BME280;50936;51.660;5.616;2023-04-22T04:33:07;100340.94;;;8.22;100.00
64544;BME280;50936;51.660;5.616;2023-04-22T04:35:35;100344.59;;;8.21;100.00
64544;BME280;50936;51.660;5.616;2023-04-22T04:38:04;100343.84;;;8.19;100.00
64544;BME280;50936;51.660;5.616;2023-04-22T04:40:33;100343.06;;;8.17;100.00
64544;BME280;50936;51.660;5.616;2023-04-22T04:43:15;100343.28;;;8.14;100.00
64544;BME280;50936;51.660;5.616;2023-04-22T04:45:49;100337.16;;;8.12;100.00
64544;BME280;50936;51.660;5.616;2023-04-22T04:48:23;100343.47;;;8.10;100.00
64544;BME280;50936;51.660;5.616;2023-04-22T04:50:59;100344.34;;;8.11;100.00
64544;BME280;50936;51.660;5.616;2023-04-22T04:53:29;100341.53;;;8.13;100.00
64544;BME280;50936;51.660;5.616;2023-04-22T04:55:56;100346.94;;;8.13;100.00
64544;BME280;50936;51.660;5.616;2023-04-22T04:58:25;100345.00;;;8.15;100.00
64544;BME280;50936;51.660;5.616;2023-04-22T05:01:08;100340.38;;;8.17;100.00
64544;BME280;50936;51.660;5.616;2023-04-22T05:03:35;100341.16;;;8.19;100.00
64544;BME280;50936;51.660;5.616;2023-04-22T05:06:03;100339.09;;;8.22;100.00
64544;BME280;50936;51.660;5.616;2023-04-22T05:08:32;100351.50;;;8.25;100.00
64544;BME280;50936;51.660;5.616;2023-04-22T05:11:04;100346.88;;;8.27;100.00
64544;BME280;50936;51.660;5.616;2023-04-22T05:13:31;100349.34;;;8.30;100.00
64544;BME280;50936;51.660;5.616;2023-04-22T05:15:59;100349.13;;;8.33;100.00
64544;BME280;50936;51.660;5.616;2023-04-22T05:18:26;100347.31;;;8.34;100.00
64544;BME280;50936;51.660;5.616;2023-04-22T05:20:54;100352.81;;;8.32;100.00
64544;BME280;50936;51.660;5.616;2023-04-22T05:23:25;100351.06;;;8.31;100.00
64544;BME280;50936;51.660;5.616;2023-04-22T05:25:55;100359.88;;;8.33;100.00
64544;BME280;50936;51.660;5.616;2023-04-22T05:28:23;100351.72;;;8.35;100.00
64544;BME280;50936;51.660;5.616;2023-04-22T05:30:53;100340.84;;;8.36;100.00
64544;BME280;50936;51.660;5.616;2023-04-22T05:33:20;100339.00;;;8.37;100.00
64544;BME280;50936;51.660;5.616;2023-04-22T05:35:48;100339.91;;;8.37;100.00
64544;BME280;50936;51.660;5.616;2023-04-22T05:38:17;100349.59;;;8.40;100.00
64544;BME280;50936;51.660;5.616;2023-04-22T05:40:45;100335.84;;;8.44;100.00
64544;BME280;50936;51.660;5.616;2023-04-22T05:43:14;100343.41;;;8.52;100.00
64544;BME280;50936;51.660;5.616;2023-04-22T05:45:46;100338.44;;;8.59;100.00
64544;BME280;50936;51.660;5.616;2023-04-22T05:48:15;100330.69;;;8.67;100.00
64544;BME280;50936;51.660;5.616;2023-04-22T05:50:51;100330.16;;;8.75;100.00
64544;BME280;50936;51.660;5.616;2023-04-22T05:53:20;100336.94;;;8.80;100.00
64544;BME280;50936;51.660;5.616;2023-04-22T05:55:46;100332.66;;;8.91;100.00
64544;BME280;50936;51.660;5.616;2023-04-22T05:58:13;100337.19;;;9.03;100.00
64544;BME280;50936;51.660;5.616;2023-04-22T06:01:08;100339.72;;;9.17;100.00
64544;BME280;50936;51.660;5.616;2023-04-22T06:03:47;100336.25;;;9.28;100.00
64544;BME280;50936;51.660;5.616;2023-04-22T06:06:16;100336.69;;;9.35;100.00
64544;BME280;50936;51.660;5.616;2023-04-22T06:08:45;100342.91;;;9.35;100.00
64544;BME280;50936;51.660;5.616;2023-04-22T06:11:12;100340.34;;;9.34;100.00
64544;BME280;50936;51.660;5.616;2023-04-22T06:13:39;100331.06;;;9.38;100.00
64544;BME280;50936;51.660;5.616;2023-04-22T06:16:07;100337.28;;;9.51;100.00
64544;BME280;50936;51.660;5.616;2023-04-22T06:18:39;100325.66;;;9.75;100.00
64544;BME280;50936;51.660;5.616;2023-04-22T06:21:11;100324.88;;;9.86;100.00
64544;BME280;50936;51.660;5.616;2023-04-22T06:23:38;100326.13;;;9.93;100.00
64544;BME280;50936;51.660;5.616;2023-04-22T06:26:05;100330.16;;;10.11;100.00
64544;BME280;50936;51.660;5.616;2023-04-22T06:28:34;100318.59;;;10.33;100.00
64544;BME280;50936;51.660;5.616;2023-04-22T06:31:06;100322.31;;;10.55;100.00
64544;BME280;50936;51.660;5.616;2023-04-22T06:33:34;100319.06;;;10.74;100.00
64544;BME280;50936;51.660;5.616;2023-04-22T06:36:01;100313.56;;;10.98;100.00
64544;BME280;50936;51.660;5.616;2023-04-22T06:38:29;100312.69;;;11.31;100.00
64544;BME280;50936;51.660;5.616;2023-04-22T06:41:20;100313.69;;;11.85;100.00
64544;BME280;50936;51.660;5.616;2023-04-22T06:43:50;100318.63;;;12.45;100.00
64544;BME280;50936;51.660;5.616;2023-04-22T06:46:17;100320.13;;;12.80;100.00
64544;BME280;50936;51.660;5.616;2023-04-22T06:48:50;100319.03;;;12.82;100.00
64544;BME280;50936;51.660;5.616;2023-04-22T06:51:37;100320.72;;;12.83;100.00
64544;BME280;50936;51.660;5.616;2023-04-22T06:54:07;100312.06;;;12.89;100.00
64544;BME280;50936;51.660;5.616;2023-04-22T06:56:34;100313.19;;;13.18;100.00
64544;BME280;50936;51.660;5.616;2023-04-22T06:59:01;100306.03;;;13.47;100.00
64544;BME280;50936;51.660;5.616;2023-04-22T07:01:29;100296.66;;;13.71;100.00
64544;BME280;50936;51.660;5.616;2023-04-22T07:03:56;100300.81;;;13.75;100.00
64544;BME280;50936;51.660;5.616;2023-04-22T07:06:23;100305.09;;;13.68;100.00
64544;BME280;50936;51.660;5.616;2023-04-22T07:08:51;100297.38;;;13.73;100.00
64544;BME280;50936;51.660;5.616;2023-04-22T07:11:18;100304.16;;;13.89;100.00
64544;BME280;50936;51.660;5.616;2023-04-22T07:13:53;100308.00;;;14.05;100.00
64544;BME280;50936;51.660;5.616;2023-04-22T07:16:20;100314.03;;;14.29;100.00
64544;BME280;50936;51.660;5.616;2023-04-22T07:18:47;100306.97;;;14.55;100.00
64544;BME280;50936;51.660;5.616;2023-04-22T07:21:14;100299.56;;;15.05;100.00
64544;BME280;50936;51.660;5.616;2023-04-22T07:23:41;100308.38;;;15.54;100.00
64544;BME280;50936;51.660;5.616;2023-04-22T07:26:07;100310.09;;;15.83;100.00
64544;BME280;50936;51.660;5.616;2023-04-22T07:28:34;100311.13;;;16.00;100.00
64544;BME280;50936;51.660;5.616;2023-04-22T07:31:02;100300.50;;;15.78;100.00
64544;BME280;50936;51.660;5.616;2023-04-22T07:33:28;100294.66;;;15.46;100.00
64544;BME280;50936;51.660;5.616;2023-04-22T07:35:55;100294.97;;;15.15;100.00
64544;BME280;50936;51.660;5.616;2023-04-22T07:38:23;100295.03;;;14.95;100.00
64544;BME280;50936;51.660;5.616;2023-04-22T07:40:51;100293.53;;;15.11;100.00
64544;BME280;50936;51.660;5.616;2023-04-22T07:43:18;100301.31;;;15.61;100.00
64544;BME280;50936;51.660;5.616;2023-04-22T07:45:45;100305.50;;;16.19;100.00
64544;BME280;50936;51.660;5.616;2023-04-22T07:48:12;100304.94;;;16.51;100.00
64544;BME280;50936;51.660;5.616;2023-04-22T07:50:39;100306.66;;;16.79;100.00
64544;BME280;50936;51.660;5.616;2023-04-22T07:53:06;100309.47;;;17.13;100.00
64544;BME280;50936;51.660;5.616;2023-04-22T07:55:33;100314.75;;;17.49;100.00
64544;BME280;50936;51.660;5.616;2023-04-22T07:57:59;100311.34;;;17.89;100.00
64544;BME280;50936;51.660;5.616;2023-04-22T08:00:34;100309.13;;;18.09;99.28
64544;BME280;50936;51.660;5.616;2023-04-22T08:03:02;100314.94;;;17.98;95.75
64544;BME280;50936;51.660;5.616;2023-04-22T08:05:29;100298.56;;;17.56;98.73
64544;BME280;50936;51.660;5.616;2023-04-22T08:07:56;100288.34;;;17.23;100.00
64544;BME280;50936;51.660;5.616;2023-04-22T08:10:23;100278.78;;;17.11;97.96
64544;BME280;50936;51.660;5.616;2023-04-22T08:12:50;100282.91;;;17.23;100.00
64544;BME280;50936;51.660;5.616;2023-04-22T08:15:18;100283.66;;;17.42;97.56
64544;BME280;50936;51.660;5.616;2023-04-22T08:17:45;100285.06;;;17.46;97.70
64544;BME280;50936;51.660;5.616;2023-04-22T08:20:11;100274.50;;;17.51;96.36
64544;BME280;50936;51.660;5.616;2023-04-22T08:22:41;100266.69;;;17.64;95.42
64544;BME280;50936;51.660;5.616;2023-04-22T08:25:10;100269.00;;;17.94;94.46
64544;BME280;50936;51.660;5.616;2023-04-22T08:27:38;100266.97;;;18.12;93.37
64544;BME280;50936;51.660;5.616;2023-04-22T08:30:06;100263.56;;;18.26;93.51
64544;BME280;50936;51.660;5.616;2023-04-22T08:32:33;100265.75;;;18.31;92.00
64544;BME280;50936;51.660;5.616;2023-04-22T08:35:01;100263.72;;;18.33;91.61
64544;BME280;50936;51.660;5.616;2023-04-22T08:37:31;100272.25;;;18.38;89.03
64544;BME280;50936;51.660;5.616;2023-04-22T08:39:59;100269.34;;;18.48;87.98
64544;BME280;50936;51.660;5.616;2023-04-22T08:42:26;100268.66;;;18.62;86.22
64544;BME280;50936;51.660;5.616;2023-04-22T08:44:53;100264.06;;;18.30;86.91
64544;BME280;50936;51.660;5.616;2023-04-22T08:47:20;100261.66;;;17.94;88.41
64544;BME280;50936;51.660;5.616;2023-04-22T08:49:49;100254.91;;;17.72;89.48
64544;BME280;50936;51.660;5.616;2023-04-22T08:52:18;100258.84;;;17.69;91.68
64544;BME280;50936;51.660;5.616;2023-04-22T08:54:46;100251.41;;;17.96;92.01
64544;BME280;50936;51.660;5.616;2023-04-22T08:57:14;100243.72;;;18.33;89.59
64544;BME280;50936;51.660;5.616;2023-04-22T08:59:43;100239.41;;;18.71;88.82
64544;BME280;50936;51.660;5.616;2023-04-22T09:02:16;100229.72;;;19.16;87.17
64544;BME280;50936;51.660;5.616;2023-04-22T09:04:47;100224.03;;;19.57;87.08
64544;BME280;50936;51.660;5.616;2023-04-22T09:07:23;100229.00;;;19.85;84.50
64544;BME280;50936;51.660;5.616;2023-04-22T09:09:55;100226.75;;;20.12;80.88
64544;BME280;50936;51.660;5.616;2023-04-22T09:12:26;100231.50;;;20.18;76.86
64544;BME280;50936;51.660;5.616;2023-04-22T09:14:54;100227.75;;;20.19;79.16
64544;BME280;50936;51.660;5.616;2023-04-22T09:17:32;100219.91;;;20.31;76.64
64544;BME280;50936;51.660;5.616;2023-04-22T09:20:01;100213.09;;;20.27;74.68
64544;BME280;50936;51.660;5.616;2023-04-22T09:22:38;100219.34;;;19.97;75.65
64544;BME280;50936;51.660;5.616;2023-04-22T09:25:26;100222.06;;;19.97;76.31
64544;BME280;50936;51.660;5.616;2023-04-22T09:27:55;100213.22;;;19.87;76.68
64544;BME280;50936;51.660;5.616;2023-04-22T09:30:31;100223.53;;;19.85;75.63
64544;BME280;50936;51.660;5.616;2023-04-22T09:33:01;100221.53;;;19.79;74.48
64544;BME280;50936;51.660;5.616;2023-04-22T09:35:31;100214.91;;;19.65;75.38
64544;BME280;50936;51.660;5.616;2023-04-22T09:38:06;100213.44;;;19.54;75.43
64544;BME280;50936;51.660;5.616;2023-04-22T09:40:35;100214.06;;;19.65;75.14
64544;BME280;50936;51.660;5.616;2023-04-22T09:43:06;100203.34;;;19.86;75.86
64544;BME280;50936;51.660;5.616;2023-04-22T09:45:35;100215.38;;;20.00;73.38
64544;BME280;50936;51.660;5.616;2023-04-22T09:48:40;100216.91;;;19.79;74.56
64544;BME280;50936;51.660;5.616;2023-04-22T09:50:59;100199.78;;;19.46;74.39
64544;BME280;50936;51.660;5.616;2023-04-22T09:53:26;100199.88;;;19.30;75.03
64544;BME280;50936;51.660;5.616;2023-04-22T09:55:53;100193.69;;;19.36;76.23
64544;BME280;50936;51.660;5.616;2023-04-22T09:58:21;100196.38;;;19.44;78.12
64544;BME280;50936;51.660;5.616;2023-04-22T10:00:52;100204.81;;;19.66;76.91
64544;BME280;50936;51.660;5.616;2023-04-22T10:03:22;100207.16;;;19.77;76.15
64544;BME280;50936;51.660;5.616;2023-04-22T10:05:49;100204.84;;;19.89;75.38
64544;BME280;50936;51.660;5.616;2023-04-22T10:08:16;100203.50;;;20.08;74.30
64544;BME280;50936;51.660;5.616;2023-04-22T10:10:43;100205.97;;;20.41;72.59
64544;BME280;50936;51.660;5.616;2023-04-22T10:13:10;100200.41;;;20.79;69.85
64544;BME280;50936;51.660;5.616;2023-04-22T10:15:51;100192.84;;;20.81;69.09
64544;BME280;50936;51.660;5.616;2023-04-22T10:18:25;100206.84;;;20.86;68.51
64544;BME280;50936;51.660;5.616;2023-04-22T10:20:55;100198.91;;;20.91;68.49
64544;BME280;50936;51.660;5.616;2023-04-22T10:23:24;100210.19;;;20.81;69.10
64544;BME280;50936;51.660;5.616;2023-04-22T10:25:55;100205.34;;;20.68;68.29
64544;BME280;50936;51.660;5.616;2023-04-22T10:28:27;100200.84;;;20.52;69.01
64544;BME280;50936;51.660;5.616;2023-04-22T10:30:55;100209.25;;;20.51;68.86
64544;BME280;50936;51.660;5.616;2023-04-22T10:36:16;100225.00;;;20.19;70.32
64544;BME280;50936;51.660;5.616;2023-04-22T10:41:25;100226.28;;;19.85;72.47
64544;BME280;50936;51.660;5.616;2023-04-22T10:43:57;100224.09;;;19.72;73.53
64544;BME280;50936;51.660;5.616;2023-04-22T10:49:09;100211.38;;;19.56;75.58
64544;BME280;50936;51.660;5.616;2023-04-22T10:57:04;100214.31;;;19.55;74.44
64544;BME280;50936;51.660;5.616;2023-04-22T10:59:46;100209.97;;;19.60;75.65
64544;BME280;50936;51.660;5.616;2023-04-22T11:02:17;100204.53;;;19.52;74.66
64544;BME280;50936;51.660;5.616;2023-04-22T11:04:45;100192.66;;;19.37;76.14
64544;BME280;50936;51.660;5.616;2023-04-22T11:10:07;100198.88;;;19.22;75.86
64544;BME280;50936;51.660;5.616;2023-04-22T11:12:42;100207.84;;;19.08;76.58
64544;BME280;50936;51.660;5.616;2023-04-22T11:15:18;100203.81;;;18.96;77.59
64544;BME280;50936;51.660;5.616;2023-04-22T11:17:51;100200.06;;;18.89;78.93
64544;BME280;50936;51.660;5.616;2023-04-22T11:20:20;100198.03;;;18.74;78.82
64544;BME280;50936;51.660;5.616;2023-04-22T11:22:53;100200.13;;;18.56;79.44
64544;BME280;50936;51.660;5.616;2023-04-22T11:25:22;100203.75;;;18.40;79.42
64544;BME280;50936;51.660;5.616;2023-04-22T11:27:51;100210.44;;;18.21;80.48
64544;BME280;50936;51.660;5.616;2023-04-22T11:30:24;100212.13;;;18.05;81.28
64544;BME280;50936;51.660;5.616;2023-04-22T11:32:54;100212.63;;;17.93;82.09
64544;BME280;50936;51.660;5.616;2023-04-22T11:35:32;100200.13;;;17.82;83.26
64544;BME280;50936;51.660;5.616;2023-04-22T11:38:02;100202.53;;;17.77;84.50
64544;BME280;50936;51.660;5.616;2023-04-22T11:40:33;100207.28;;;17.75;85.29
64544;BME280;50936;51.660;5.616;2023-04-22T11:43:06;100212.06;;;17.73;84.99
64544;BME280;50936;51.660;5.616;2023-04-22T11:45:36;100205.59;;;17.74;85.08
64544;BME280;50936;51.660;5.616;2023-04-22T11:48:06;100204.56;;;17.75;84.43
64544;BME280;50936;51.660;5.616;2023-04-22T11:50:37;100202.88;;;17.74;84.61
64544;BME280;50936;51.660;5.616;2023-04-22T11:53:19;100203.53;;;17.67;85.24
64544;BME280;50936;51.660;5.616;2023-04-22T11:55:50;100195.00;;;17.62;86.11
64544;BME280;50936;51.660;5.616;2023-04-22T11:58:26;100197.38;;;17.57;87.83
64544;BME280;50936;51.660;5.616;2023-04-22T12:00:56;100202.59;;;17.34;89.85
64544;BME280;50936;51.660;5.616;2023-04-22T12:03:26;100199.66;;;17.11;91.73
64544;BME280;50936;51.660;5.616;2023-04-22T12:05:57;100212.88;;;16.98;95.36
64544;BME280;50936;51.660;5.616;2023-04-22T12:08:39;100201.56;;;16.84;99.90
64544;BME280;50936;51.660;5.616;2023-04-22T12:11:09;100207.44;;;16.71;100.00
64544;BME280;50936;51.660;5.616;2023-04-22T12:16:19;100203.69;;;16.46;100.00
64544;BME280;50936;51.660;5.616;2023-04-22T12:18:53;100214.25;;;16.41;100.00
64544;BME280;50936;51.660;5.616;2023-04-22T12:21:25;100219.69;;;16.41;100.00
64544;BME280;50936;51.660;5.616;2023-04-22T12:24:02;100213.53;;;16.39;100.00
64544;BME280;50936;51.660;5.616;2023-04-22T12:26:34;100209.81;;;16.40;100.00
64544;BME280;50936;51.660;5.616;2023-04-22T12:29:01;100207.22;;;16.39;100.00
64544;BME280;50936;51.660;5.616;2023-04-22T12:31:28;100208.41;;;16.36;100.00
64544;BME280;50936;51.660;5.616;2023-04-22T12:33:55;100218.84;;;16.23;100.00
64544;BME280;50936;51.660;5.616;2023-04-22T12:36:22;100232.97;;;16.00;100.00
64544;BME280;50936;51.660;5.616;2023-04-22T12:38:50;100226.25;;;15.86;100.00
64544;BME280;50936;51.660;5.616;2023-04-22T12:41:17;100219.72;;;15.69;100.00
64544;BME280;50936;51.660;5.616;2023-04-22T12:43:44;100220.88;;;15.49;100.00
64544;BME280;50936;51.660;5.616;2023-04-22T12:46:11;100219.00;;;15.31;100.00
64544;BME280;50936;51.660;5.616;2023-04-22T12:48:38;100209.03;;;15.22;100.00
64544;BME280;50936;51.660;5.616;2023-04-22T12:51:05;100209.34;;;15.19;100.00
64544;BME280;50936;51.660;5.616;2023-04-22T12:53:32;100209.63;;;15.16;100.00
64544;BME280;50936;51.660;5.616;2023-04-22T12:56:00;100212.50;;;15.14;100.00
64544;BME280;50936;51.660;5.616;2023-04-22T12:58:27;100229.97;;;15.12;100.00
64544;BME280;50936;51.660;5.616;2023-04-22T13:00:54;100235.72;;;15.09;100.00
64544;BME280;50936;51.660;5.616;2023-04-22T13:03:21;100239.75;;;15.05;100.00
64544;BME280;50936;51.660;5.616;2023-04-22T13:05:48;100235.22;;;14.95;100.00
64544;BME280;50936;51.660;5.616;2023-04-22T13:08:15;100245.72;;;14.80;100.00
64544;BME280;50936;51.660;5.616;2023-04-22T13:10:42;100255.78;;;14.60;100.00
64544;BME280;50936;51.660;5.616;2023-04-22T13:13:09;100258.66;;;14.39;100.00
64544;BME280;50936;51.660;5.616;2023-04-22T13:15:47;100246.97;;;14.19;100.00
64544;BME280;50936;51.660;5.616;2023-04-22T13:18:20;100257.25;;;14.06;100.00